sensor_id;sensor_type;location;lat;lon;timestamp;P1;durP1;ratioP1;P2;durP2;ratioP2
67997;SDS011;54773;53.388;-1.504;2023-06-14T00:01:10;15.07;;;4.60;;
67997;SDS011;54773;53.388;-1.504;2023-06-14T00:03:57;10.05;;;4.30;;
67997;SDS011;54773;53.388;-1.504;2023-06-14T00:06:40;10.88;;;4.50;;
67997;SDS011;54773;53.388;-1.504;2023-06-14T00:09:25;12.23;;;4.53;;
67997;SDS011;54773;53.388;-1.504;2023-06-14T00:12:13;12.75;;;4.88;;
67997;SDS011;54773;53.388;-1.504;2023-06-14T00:14:57;12.38;;;5.20;;
67997;SDS011;54773;53.388;-1.504;2023-06-14T00:17:41;9.68;;;4.70;;
67997;SDS011;54773;53.388;-1.504;2023-06-14T00:20:24;10.07;;;4.47;;
67997;SDS011;54773;53.388;-1.504;2023-06-14T00:23:09;11.75;;;4.82;;
67997;SDS011;54773;53.388;-1.504;2023-06-14T00:25:53;9.93;;;4.70;;
67997;SDS011;54773;53.388;-1.504;2023-06-14T00:28:38;10.70;;;4.60;;
67997;SDS011;54773;53.388;-1.504;2023-06-14T00:31:22;10.13;;;4.97;;
67997;SDS011;54773;53.388;-1.504;2023-06-14T00:34:06;8.18;;;4.82;;
67997;SDS011;54773;53.388;-1.504;2023-06-14T00:36:50;9.80;;;5.13;;
67997;SDS011;54773;53.388;-1.504;2023-06-14T00:39:35;9.02;;;5.20;;
67997;SDS011;54773;53.388;-1.504;2023-06-14T00:42:23;10.15;;;5.40;;
67997;SDS011;54773;53.388;-1.504;2023-06-14T00:45:08;11.10;;;5.13;;
67997;SDS011;54773;53.388;-1.504;2023-06-14T00:47:53;10.00;;;5.60;;
67997;SDS011;54773;53.388;-1.504;2023-06-14T00:50:39;8.90;;;5.15;;
67997;SDS011;54773;53.388;-1.504;2023-06-14T00:53:30;10.35;;;5.43;;
67997;SDS011;54773;53.388;-1.504;2023-06-14T00:56:15;10.15;;;5.72;;
67997;SDS011;54773;53.388;-1.504;2023-06-14T00:59:00;12.32;;;5.68;;
67997;SDS011;54773;53.388;-1.504;2023-06-14T01:01:46;14.25;;;5.80;;
67997;SDS011;54773;53.388;-1.504;2023-06-14T01:04:32;9.85;;;5.45;;
67997;SDS011;54773;53.388;-1.504;2023-06-14T01:15:59;11.52;;;5.93;;
67997;SDS011;54773;53.388;-1.504;2023-06-14T01:18:43;10.27;;;5.53;;
67997;SDS011;54773;53.388;-1.504;2023-06-14T01:21:32;9.93;;;5.55;;
67997;SDS011;54773;53.388;-1.504;2023-06-14T01:24:25;12.98;;;6.10;;
67997;SDS011;54773;53.388;-1.504;2023-06-14T01:27:15;9.23;;;5.85;;
67997;SDS011;54773;53.388;-1.504;2023-06-14T01:30:00;9.57;;;5.90;;
67997;SDS011;54773;53.388;-1.504;2023-06-14T01:32:49;11.68;;;6.18;;
67997;SDS011;54773;53.388;-1.504;2023-06-14T01:35:34;8.82;;;5.07;;
67997;SDS011;54773;53.388;-1.504;2023-06-14T01:38:20;8.63;;;5.03;;
67997;SDS011;54773;53.388;-1.504;2023-06-14T01:41:08;10.05;;;5.53;;
67997;SDS011;54773;53.388;-1.504;2023-06-14T01:43:53;11.45;;;5.40;;
67997;SDS011;54773;53.388;-1.504;2023-06-14T01:46:38;9.75;;;5.38;;
67997;SDS011;54773;53.388;-1.504;2023-06-14T01:49:23;8.48;;;5.10;;
67997;SDS011;54773;53.388;-1.504;2023-06-14T01:52:07;11.70;;;5.35;;
67997;SDS011;54773;53.388;-1.504;2023-06-14T01:54:53;8.32;;;5.10;;
67997;SDS011;54773;53.388;-1.504;2023-06-14T01:57:37;8.77;;;5.50;;
67997;SDS011;54773;53.388;-1.504;2023-06-14T02:00:21;13.82;;;5.63;;
67997;SDS011;54773;53.388;-1.504;2023-06-14T02:03:06;9.93;;;5.25;;
67997;SDS011;54773;53.388;-1.504;2023-06-14T02:05:50;9.90;;;5.35;;
67997;SDS011;54773;53.388;-1.504;2023-06-14T02:08:34;10.00;;;5.15;;
67997;SDS011;54773;53.388;-1.504;2023-06-14T02:11:18;11.32;;;5.13;;
67997;SDS011;54773;53.388;-1.504;2023-06-14T02:14:02;11.13;;;5.53;;
67997;SDS011;54773;53.388;-1.504;2023-06-14T02:16:47;12.43;;;5.35;;
67997;SDS011;54773;53.388;-1.504;2023-06-14T02:19:32;9.05;;;4.78;;
67997;SDS011;54773;53.388;-1.504;2023-06-14T02:22:17;8.18;;;4.47;;
67997;SDS011;54773;53.388;-1.504;2023-06-14T02:25:01;7.53;;;3.93;;
67997;SDS011;54773;53.388;-1.504;2023-06-14T02:27:45;9.27;;;4.90;;
67997;SDS011;54773;53.388;-1.504;2023-06-14T02:30:29;11.30;;;3.78;;
67997;SDS011;54773;53.388;-1.504;2023-06-14T02:33:13;6.80;;;4.43;;
67997;SDS011;54773;53.388;-1.504;2023-06-14T02:35:57;8.13;;;3.90;;
67997;SDS011;54773;53.388;-1.504;2023-06-14T02:38:41;6.50;;;3.72;;
67997;SDS011;54773;53.388;-1.504;2023-06-14T02:41:25;10.15;;;3.85;;
67997;SDS011;54773;53.388;-1.504;2023-06-14T02:46:56;8.02;;;3.60;;
67997;SDS011;54773;53.388;-1.504;2023-06-14T02:49:40;7.15;;;3.25;;
67997;SDS011;54773;53.388;-1.504;2023-06-14T02:52:24;6.00;;;3.42;;
67997;SDS011;54773;53.388;-1.504;2023-06-14T02:55:09;10.13;;;3.92;;
67997;SDS011;54773;53.388;-1.504;2023-06-14T02:57:53;13.07;;;4.00;;
67997;SDS011;54773;53.388;-1.504;2023-06-14T03:00:37;8.43;;;3.90;;
67997;SDS011;54773;53.388;-1.504;2023-06-14T03:03:22;8.07;;;4.28;;
67997;SDS011;54773;53.388;-1.504;2023-06-14T03:06:08;6.57;;;3.70;;
67997;SDS011;54773;53.388;-1.504;2023-06-14T03:08:53;8.75;;;4.40;;
67997;SDS011;54773;53.388;-1.504;2023-06-14T03:11:38;9.27;;;4.45;;
67997;SDS011;54773;53.388;-1.504;2023-06-14T03:14:22;8.85;;;4.60;;
67997;SDS011;54773;53.388;-1.504;2023-06-14T03:17:06;8.47;;;4.50;;
67997;SDS011;54773;53.388;-1.504;2023-06-14T03:19:51;7.70;;;4.32;;
67997;SDS011;54773;53.388;-1.504;2023-06-14T03:22:35;7.13;;;4.43;;
67997;SDS011;54773;53.388;-1.504;2023-06-14T03:25:20;8.70;;;4.60;;
67997;SDS011;54773;53.388;-1.504;2023-06-14T03:28:05;8.60;;;4.50;;
67997;SDS011;54773;53.388;-1.504;2023-06-14T03:30:49;10.63;;;4.63;;
67997;SDS011;54773;53.388;-1.504;2023-06-14T03:33:33;9.02;;;5.05;;
67997;SDS011;54773;53.388;-1.504;2023-06-14T03:36:17;8.97;;;4.27;;
67997;SDS011;54773;53.388;-1.504;2023-06-14T03:39:02;9.30;;;4.35;;
67997;SDS011;54773;53.388;-1.504;2023-06-14T03:41:46;8.02;;;4.50;;
67997;SDS011;54773;53.388;-1.504;2023-06-14T03:44:30;6.97;;;4.38;;
67997;SDS011;54773;53.388;-1.504;2023-06-14T03:47:14;9.70;;;4.25;;
67997;SDS011;54773;53.388;-1.504;2023-06-14T03:49:58;6.63;;;3.95;;
67997;SDS011;54773;53.388;-1.504;2023-06-14T03:52:42;8.15;;;4.78;;
67997;SDS011;54773;53.388;-1.504;2023-06-14T03:55:27;9.55;;;4.15;;
67997;SDS011;54773;53.388;-1.504;2023-06-14T03:58:11;8.00;;;4.00;;
67997;SDS011;54773;53.388;-1.504;2023-06-14T04:00:57;9.30;;;4.53;;
67997;SDS011;54773;53.388;-1.504;2023-06-14T04:03:41;12.95;;;4.57;;
67997;SDS011;54773;53.388;-1.504;2023-06-14T04:06:28;7.38;;;3.85;;
67997;SDS011;54773;53.388;-1.504;2023-06-14T04:09:16;8.50;;;4.18;;
67997;SDS011;54773;53.388;-1.504;2023-06-14T04:12:02;7.82;;;3.83;;
67997;SDS011;54773;53.388;-1.504;2023-06-14T04:14:47;7.35;;;3.88;;
67997;SDS011;54773;53.388;-1.504;2023-06-14T04:17:32;6.75;;;3.85;;
67997;SDS011;54773;53.388;-1.504;2023-06-14T04:20:19;7.57;;;4.15;;
67997;SDS011;54773;53.388;-1.504;2023-06-14T04:26:07;7.15;;;4.25;;
67997;SDS011;54773;53.388;-1.504;2023-06-14T04:28:54;9.05;;;4.43;;
67997;SDS011;54773;53.388;-1.504;2023-06-14T04:31:40;7.63;;;4.38;;
67997;SDS011;54773;53.388;-1.504;2023-06-14T04:34:28;8.52;;;3.90;;
67997;SDS011;54773;53.388;-1.504;2023-06-14T04:37:17;7.78;;;4.00;;
67997;SDS011;54773;53.388;-1.504;2023-06-14T04:40:02;5.82;;;3.90;;
67997;SDS011;54773;53.388;-1.504;2023-06-14T04:42:50;8.20;;;4.07;;
67997;SDS011;54773;53.388;-1.504;2023-06-14T04:45:34;7.85;;;4.40;;
67997;SDS011;54773;53.388;-1.504;2023-06-14T04:48:21;9.60;;;3.95;;
67997;SDS011;54773;53.388;-1.504;2023-06-14T04:51:07;9.15;;;3.95;;
67997;SDS011;54773;53.388;-1.504;2023-06-14T04:53:51;7.25;;;3.58;;
67997;SDS011;54773;53.388;-1.504;2023-06-14T04:56:36;9.57;;;4.43;;
67997;SDS011;54773;53.388;-1.504;2023-06-14T04:59:21;11.63;;;4.35;;
67997;SDS011;54773;53.388;-1.504;2023-06-14T05:02:08;8.00;;;3.85;;
67997;SDS011;54773;53.388;-1.504;2023-06-14T05:04:52;8.32;;;3.90;;
67997;SDS011;54773;53.388;-1.504;2023-06-14T05:07:36;9.05;;;4.10;;
67997;SDS011;54773;53.388;-1.504;2023-06-14T05:10:21;7.68;;;3.90;;
67997;SDS011;54773;53.388;-1.504;2023-06-14T05:13:05;10.77;;;3.80;;
67997;SDS011;54773;53.388;-1.504;2023-06-14T05:15:48;9.00;;;4.40;;
67997;SDS011;54773;53.388;-1.504;2023-06-14T05:18:32;8.80;;;3.90;;
67997;SDS011;54773;53.388;-1.504;2023-06-14T05:21:18;6.35;;;3.80;;
67997;SDS011;54773;53.388;-1.504;2023-06-14T05:24:03;6.25;;;3.85;;
67997;SDS011;54773;53.388;-1.504;2023-06-14T05:26:47;6.90;;;4.00;;
67997;SDS011;54773;53.388;-1.504;2023-06-14T05:29:32;8.65;;;4.15;;
67997;SDS011;54773;53.388;-1.504;2023-06-14T05:32:19;9.65;;;4.18;;
67997;SDS011;54773;53.388;-1.504;2023-06-14T05:35:03;10.40;;;4.30;;
67997;SDS011;54773;53.388;-1.504;2023-06-14T05:37:49;7.82;;;4.10;;
67997;SDS011;54773;53.388;-1.504;2023-06-14T05:40:33;9.25;;;4.35;;
67997;SDS011;54773;53.388;-1.504;2023-06-14T05:43:17;9.55;;;3.78;;
67997;SDS011;54773;53.388;-1.504;2023-06-14T05:46:02;10.52;;;4.25;;
67997;SDS011;54773;53.388;-1.504;2023-06-14T05:48:46;8.30;;;3.57;;
67997;SDS011;54773;53.388;-1.504;2023-06-14T05:51:30;9.45;;;4.05;;
67997;SDS011;54773;53.388;-1.504;2023-06-14T05:54:15;7.68;;;4.25;;
67997;SDS011;54773;53.388;-1.504;2023-06-14T05:56:59;10.48;;;3.70;;
67997;SDS011;54773;53.388;-1.504;2023-06-14T05:59:44;9.70;;;4.15;;
67997;SDS011;54773;53.388;-1.504;2023-06-14T06:02:29;11.93;;;4.50;;
67997;SDS011;54773;53.388;-1.504;2023-06-14T06:05:13;7.72;;;4.07;;
67997;SDS011;54773;53.388;-1.504;2023-06-14T06:07:59;6.90;;;3.47;;
67997;SDS011;54773;53.388;-1.504;2023-06-14T06:10:44;9.45;;;4.10;;
67997;SDS011;54773;53.388;-1.504;2023-06-14T06:13:28;9.07;;;4.20;;
67997;SDS011;54773;53.388;-1.504;2023-06-14T06:16:13;9.50;;;4.00;;
67997;SDS011;54773;53.388;-1.504;2023-06-14T06:18:57;7.53;;;3.72;;
67997;SDS011;54773;53.388;-1.504;2023-06-14T06:21:41;7.40;;;3.90;;
67997;SDS011;54773;53.388;-1.504;2023-06-14T06:24:26;9.52;;;3.53;;
67997;SDS011;54773;53.388;-1.504;2023-06-14T06:27:10;8.38;;;3.50;;
67997;SDS011;54773;53.388;-1.504;2023-06-14T06:29:56;7.90;;;3.60;;
67997;SDS011;54773;53.388;-1.504;2023-06-14T06:32:39;7.40;;;3.72;;
67997;SDS011;54773;53.388;-1.504;2023-06-14T06:35:24;7.72;;;4.07;;
67997;SDS011;54773;53.388;-1.504;2023-06-14T06:38:08;6.97;;;3.22;;
67997;SDS011;54773;53.388;-1.504;2023-06-14T06:40:53;7.07;;;4.05;;
67997;SDS011;54773;53.388;-1.504;2023-06-14T06:43:38;7.28;;;3.53;;
67997;SDS011;54773;53.388;-1.504;2023-06-14T06:46:22;7.13;;;3.38;;
67997;SDS011;54773;53.388;-1.504;2023-06-14T06:49:09;8.32;;;3.72;;
67997;SDS011;54773;53.388;-1.504;2023-06-14T06:51:59;6.05;;;3.53;;
67997;SDS011;54773;53.388;-1.504;2023-06-14T06:54:47;9.60;;;4.53;;
67997;SDS011;54773;53.388;-1.504;2023-06-14T06:57:38;6.57;;;4.00;;
67997;SDS011;54773;53.388;-1.504;2023-06-14T07:00:22;8.20;;;3.40;;
67997;SDS011;54773;53.388;-1.504;2023-06-14T07:03:06;7.60;;;3.42;;
67997;SDS011;54773;53.388;-1.504;2023-06-14T07:05:50;6.43;;;3.55;;
67997;SDS011;54773;53.388;-1.504;2023-06-14T07:08:34;8.65;;;3.88;;
67997;SDS011;54773;53.388;-1.504;2023-06-14T07:11:19;9.68;;;3.65;;
67997;SDS011;54773;53.388;-1.504;2023-06-14T07:14:03;9.32;;;3.45;;
67997;SDS011;54773;53.388;-1.504;2023-06-14T07:16:47;6.30;;;3.77;;
67997;SDS011;54773;53.388;-1.504;2023-06-14T07:19:32;6.07;;;3.25;;
67997;SDS011;54773;53.388;-1.504;2023-06-14T07:22:17;9.40;;;3.63;;
67997;SDS011;54773;53.388;-1.504;2023-06-14T07:25:01;7.57;;;3.42;;
67997;SDS011;54773;53.388;-1.504;2023-06-14T07:27:46;8.07;;;3.60;;
67997;SDS011;54773;53.388;-1.504;2023-06-14T07:30:30;8.95;;;3.63;;
67997;SDS011;54773;53.388;-1.504;2023-06-14T07:33:14;10.93;;;3.28;;
67997;SDS011;54773;53.388;-1.504;2023-06-14T07:35:58;9.90;;;3.72;;
67997;SDS011;54773;53.388;-1.504;2023-06-14T07:38:43;7.47;;;3.40;;
67997;SDS011;54773;53.388;-1.504;2023-06-14T07:41:27;7.45;;;3.47;;
67997;SDS011;54773;53.388;-1.504;2023-06-14T07:44:11;7.07;;;3.47;;
67997;SDS011;54773;53.388;-1.504;2023-06-14T07:46:57;10.35;;;3.60;;
67997;SDS011;54773;53.388;-1.504;2023-06-14T07:49:44;9.07;;;3.40;;
67997;SDS011;54773;53.388;-1.504;2023-06-14T07:52:28;5.90;;;3.23;;
67997;SDS011;54773;53.388;-1.504;2023-06-14T07:55:12;8.40;;;3.40;;
67997;SDS011;54773;53.388;-1.504;2023-06-14T07:57:58;7.32;;;3.40;;
67997;SDS011;54773;53.388;-1.504;2023-06-14T08:00:42;10.40;;;3.30;;
67997;SDS011;54773;53.388;-1.504;2023-06-14T08:03:26;8.98;;;3.80;;
67997;SDS011;54773;53.388;-1.504;2023-06-14T08:06:10;7.93;;;3.40;;
67997;SDS011;54773;53.388;-1.504;2023-06-14T08:08:54;10.23;;;3.60;;
67997;SDS011;54773;53.388;-1.504;2023-06-14T08:11:38;6.93;;;3.40;;
67997;SDS011;54773;53.388;-1.504;2023-06-14T08:14:22;6.73;;;3.20;;
67997;SDS011;54773;53.388;-1.504;2023-06-14T08:17:07;10.43;;;3.55;;
67997;SDS011;54773;53.388;-1.504;2023-06-14T08:19:51;7.25;;;3.42;;
67997;SDS011;54773;53.388;-1.504;2023-06-14T08:22:38;7.57;;;3.78;;
67997;SDS011;54773;53.388;-1.504;2023-06-14T08:25:23;10.18;;;4.05;;
67997;SDS011;54773;53.388;-1.504;2023-06-14T08:28:10;9.75;;;4.05;;
67997;SDS011;54773;53.388;-1.504;2023-06-14T08:30:54;8.13;;;3.42;;
67997;SDS011;54773;53.388;-1.504;2023-06-14T08:33:38;8.90;;;3.42;;
67997;SDS011;54773;53.388;-1.504;2023-06-14T08:36:26;11.48;;;3.33;;
67997;SDS011;54773;53.388;-1.504;2023-06-14T08:39:10;9.45;;;3.33;;
67997;SDS011;54773;53.388;-1.504;2023-06-14T08:41:55;14.27;;;4.22;;
67997;SDS011;54773;53.388;-1.504;2023-06-14T08:44:40;10.50;;;3.72;;
67997;SDS011;54773;53.388;-1.504;2023-06-14T08:47:25;9.45;;;4.18;;
67997;SDS011;54773;53.388;-1.504;2023-06-14T08:50:12;8.18;;;3.83;;
67997;SDS011;54773;53.388;-1.504;2023-06-14T08:53:00;11.60;;;4.10;;
67997;SDS011;54773;53.388;-1.504;2023-06-14T08:55:45;9.38;;;3.90;;
67997;SDS011;54773;53.388;-1.504;2023-06-14T08:58:31;8.10;;;3.75;;
67997;SDS011;54773;53.388;-1.504;2023-06-14T09:01:17;13.35;;;4.10;;
67997;SDS011;54773;53.388;-1.504;2023-06-14T09:04:02;9.57;;;3.72;;
67997;SDS011;54773;53.388;-1.504;2023-06-14T09:06:49;11.73;;;3.60;;
67997;SDS011;54773;53.388;-1.504;2023-06-14T09:09:39;7.93;;;3.47;;
67997;SDS011;54773;53.388;-1.504;2023-06-14T09:12:25;11.60;;;4.28;;
67997;SDS011;54773;53.388;-1.504;2023-06-14T09:15:09;10.02;;;3.45;;
67997;SDS011;54773;53.388;-1.504;2023-06-14T09:17:54;10.65;;;3.85;;
67997;SDS011;54773;53.388;-1.504;2023-06-14T09:20:39;11.18;;;4.22;;
67997;SDS011;54773;53.388;-1.504;2023-06-14T09:23:25;8.50;;;4.18;;
67997;SDS011;54773;53.388;-1.504;2023-06-14T09:28:57;11.23;;;3.40;;
67997;SDS011;54773;53.388;-1.504;2023-06-14T09:31:41;14.07;;;3.45;;
67997;SDS011;54773;53.388;-1.504;2023-06-14T09:34:25;12.38;;;3.97;;
67997;SDS011;54773;53.388;-1.504;2023-06-14T09:37:10;12.52;;;3.42;;
67997;SDS011;54773;53.388;-1.504;2023-06-14T09:39:54;13.30;;;3.50;;
67997;SDS011;54773;53.388;-1.504;2023-06-14T09:42:38;10.60;;;3.10;;
67997;SDS011;54773;53.388;-1.504;2023-06-14T09:45:22;13.07;;;3.35;;
67997;SDS011;54773;53.388;-1.504;2023-06-14T09:48:07;10.57;;;3.20;;
67997;SDS011;54773;53.388;-1.504;2023-06-14T09:50:52;10.38;;;3.13;;
67997;SDS011;54773;53.388;-1.504;2023-06-14T09:53:38;8.63;;;3.28;;
67997;SDS011;54773;53.388;-1.504;2023-06-14T09:56:28;9.40;;;3.15;;
67997;SDS011;54773;53.388;-1.504;2023-06-14T09:59:14;10.48;;;3.00;;
67997;SDS011;54773;53.388;-1.504;2023-06-14T10:02:21;8.52;;;2.95;;
67997;SDS011;54773;53.388;-1.504;2023-06-14T10:05:07;10.40;;;2.75;;
67997;SDS011;54773;53.388;-1.504;2023-06-14T10:07:58;8.77;;;3.05;;
67997;SDS011;54773;53.388;-1.504;2023-06-14T10:10:44;9.88;;;2.65;;
67997;SDS011;54773;53.388;-1.504;2023-06-14T10:13:28;11.02;;;2.80;;
67997;SDS011;54773;53.388;-1.504;2023-06-14T10:16:17;7.75;;;2.95;;
67997;SDS011;54773;53.388;-1.504;2023-06-14T10:19:07;7.60;;;2.70;;
67997;SDS011;54773;53.388;-1.504;2023-06-14T10:22:02;7.72;;;2.97;;
67997;SDS011;54773;53.388;-1.504;2023-06-14T10:24:46;13.05;;;3.47;;
67997;SDS011;54773;53.388;-1.504;2023-06-14T10:27:32;6.20;;;2.80;;
67997;SDS011;54773;53.388;-1.504;2023-06-14T10:30:16;7.55;;;2.70;;
67997;SDS011;54773;53.388;-1.504;2023-06-14T10:33:06;6.80;;;2.65;;
67997;SDS011;54773;53.388;-1.504;2023-06-14T10:36:06;6.78;;;2.80;;
67997;SDS011;54773;53.388;-1.504;2023-06-14T10:41:41;6.30;;;2.70;;
67997;SDS011;54773;53.388;-1.504;2023-06-14T10:47:31;8.55;;;2.53;;
67997;SDS011;54773;53.388;-1.504;2023-06-14T10:50:14;9.38;;;2.63;;
67997;SDS011;54773;53.388;-1.504;2023-06-14T10:53:00;5.05;;;2.67;;
67997;SDS011;54773;53.388;-1.504;2023-06-14T10:56:07;12.93;;;2.92;;
67997;SDS011;54773;53.388;-1.504;2023-06-14T11:01:37;7.93;;;2.58;;
67997;SDS011;54773;53.388;-1.504;2023-06-14T11:05:08;8.32;;;2.88;;
67997;SDS011;54773;53.388;-1.504;2023-06-14T11:07:58;7.88;;;2.42;;
67997;SDS011;54773;53.388;-1.504;2023-06-14T11:10:59;5.63;;;2.70;;
67997;SDS011;54773;53.388;-1.504;2023-06-14T11:13:44;8.52;;;3.10;;
67997;SDS011;54773;53.388;-1.504;2023-06-14T11:16:29;8.02;;;2.70;;
67997;SDS011;54773;53.388;-1.504;2023-06-14T11:19:15;18.85;;;3.15;;
67997;SDS011;54773;53.388;-1.504;2023-06-14T11:22:01;6.63;;;2.67;;
67997;SDS011;54773;53.388;-1.504;2023-06-14T11:24:45;5.95;;;2.47;;
67997;SDS011;54773;53.388;-1.504;2023-06-14T11:30:13;6.25;;;2.80;;
67997;SDS011;54773;53.388;-1.504;2023-06-14T11:32:57;5.88;;;2.72;;
67997;SDS011;54773;53.388;-1.504;2023-06-14T11:35:41;9.52;;;2.60;;
67997;SDS011;54773;53.388;-1.504;2023-06-14T11:38:28;6.47;;;2.50;;
67997;SDS011;54773;53.388;-1.504;2023-06-14T11:41:12;9.27;;;2.80;;
67997;SDS011;54773;53.388;-1.504;2023-06-14T11:43:56;9.40;;;2.42;;
67997;SDS011;54773;53.388;-1.504;2023-06-14T11:46:41;5.03;;;2.33;;
67997;SDS011;54773;53.388;-1.504;2023-06-14T11:54:55;4.93;;;2.78;;
67997;SDS011;54773;53.388;-1.504;2023-06-14T11:57:42;7.10;;;2.95;;
67997;SDS011;54773;53.388;-1.504;2023-06-14T12:03:12;6.00;;;2.38;;
67997;SDS011;54773;53.388;-1.504;2023-06-14T12:06:05;6.38;;;2.70;;
67997;SDS011;54773;53.388;-1.504;2023-06-14T12:08:55;6.97;;;2.90;;
67997;SDS011;54773;53.388;-1.504;2023-06-14T12:11:39;5.22;;;2.42;;
67997;SDS011;54773;53.388;-1.504;2023-06-14T12:14:30;9.40;;;3.03;;
67997;SDS011;54773;53.388;-1.504;2023-06-14T12:17:16;9.73;;;2.70;;
67997;SDS011;54773;53.388;-1.504;2023-06-14T12:20:19;7.43;;;2.63;;
67997;SDS011;54773;53.388;-1.504;2023-06-14T12:23:05;8.80;;;3.28;;
67997;SDS011;54773;53.388;-1.504;2023-06-14T12:25:49;7.32;;;2.67;;
67997;SDS011;54773;53.388;-1.504;2023-06-14T12:28:36;7.00;;;2.33;;
67997;SDS011;54773;53.388;-1.504;2023-06-14T12:34:05;7.82;;;2.40;;
67997;SDS011;54773;53.388;-1.504;2023-06-14T12:36:50;8.77;;;2.70;;
67997;SDS011;54773;53.388;-1.504;2023-06-14T12:39:34;6.60;;;2.70;;
67997;SDS011;54773;53.388;-1.504;2023-06-14T12:42:18;7.15;;;2.30;;
67997;SDS011;54773;53.388;-1.504;2023-06-14T12:45:03;5.97;;;2.55;;
67997;SDS011;54773;53.388;-1.504;2023-06-14T12:47:50;11.52;;;2.47;;
67997;SDS011;54773;53.388;-1.504;2023-06-14T12:50:35;7.30;;;2.60;;
67997;SDS011;54773;53.388;-1.504;2023-06-14T12:53:19;7.85;;;2.55;;
67997;SDS011;54773;53.388;-1.504;2023-06-14T12:56:04;5.75;;;2.50;;
67997;SDS011;54773;53.388;-1.504;2023-06-14T12:58:49;9.38;;;2.60;;
67997;SDS011;54773;53.388;-1.504;2023-06-14T13:01:33;6.03;;;2.40;;
67997;SDS011;54773;53.388;-1.504;2023-06-14T13:04:17;6.13;;;2.80;;
67997;SDS011;54773;53.388;-1.504;2023-06-14T13:07:01;10.15;;;2.88;;
67997;SDS011;54773;53.388;-1.504;2023-06-14T13:09:45;8.90;;;2.80;;
67997;SDS011;54773;53.388;-1.504;2023-06-14T13:12:29;6.13;;;2.50;;
67997;SDS011;54773;53.388;-1.504;2023-06-14T13:15:13;6.45;;;2.88;;
67997;SDS011;54773;53.388;-1.504;2023-06-14T13:17:57;7.75;;;2.67;;
67997;SDS011;54773;53.388;-1.504;2023-06-14T13:20:41;7.90;;;2.63;;
67997;SDS011;54773;53.388;-1.504;2023-06-14T13:23:26;7.55;;;2.53;;
67997;SDS011;54773;53.388;-1.504;2023-06-14T13:26:10;7.07;;;2.08;;
67997;SDS011;54773;53.388;-1.504;2023-06-14T13:28:55;6.57;;;2.28;;
67997;SDS011;54773;53.388;-1.504;2023-06-14T13:31:39;8.13;;;2.30;;
67997;SDS011;54773;53.388;-1.504;2023-06-14T13:34:24;5.90;;;2.30;;
67997;SDS011;54773;53.388;-1.504;2023-06-14T13:37:09;5.25;;;2.45;;
67997;SDS011;54773;53.388;-1.504;2023-06-14T13:39:53;9.55;;;2.30;;
67997;SDS011;54773;53.388;-1.504;2023-06-14T13:42:37;7.70;;;2.53;;
67997;SDS011;54773;53.388;-1.504;2023-06-14T13:45:21;6.40;;;2.13;;
67997;SDS011;54773;53.388;-1.504;2023-06-14T13:50:49;8.93;;;2.20;;
67997;SDS011;54773;53.388;-1.504;2023-06-14T13:53:34;9.73;;;2.65;;
67997;SDS011;54773;53.388;-1.504;2023-06-14T13:56:18;7.13;;;2.70;;
67997;SDS011;54773;53.388;-1.504;2023-06-14T13:59:08;5.53;;;2.22;;
67997;SDS011;54773;53.388;-1.504;2023-06-14T14:01:53;7.50;;;2.60;;
67997;SDS011;54773;53.388;-1.504;2023-06-14T14:04:37;8.40;;;2.42;;
67997;SDS011;54773;53.388;-1.504;2023-06-14T14:07:24;5.90;;;2.22;;
67997;SDS011;54773;53.388;-1.504;2023-06-14T14:10:09;5.95;;;2.40;;
67997;SDS011;54773;53.388;-1.504;2023-06-14T14:12:54;7.22;;;1.90;;
67997;SDS011;54773;53.388;-1.504;2023-06-14T14:15:38;7.78;;;2.13;;
67997;SDS011;54773;53.388;-1.504;2023-06-14T14:18:22;9.00;;;2.25;;
67997;SDS011;54773;53.388;-1.504;2023-06-14T14:21:06;7.80;;;2.20;;
67997;SDS011;54773;53.388;-1.504;2023-06-14T14:23:53;8.77;;;2.10;;
67997;SDS011;54773;53.388;-1.504;2023-06-14T14:26:38;7.10;;;2.28;;
67997;SDS011;54773;53.388;-1.504;2023-06-14T14:29:22;4.55;;;2.22;;
67997;SDS011;54773;53.388;-1.504;2023-06-14T14:32:06;5.13;;;2.28;;
67997;SDS011;54773;53.388;-1.504;2023-06-14T14:34:50;7.22;;;2.20;;
67997;SDS011;54773;53.388;-1.504;2023-06-14T14:37:34;6.10;;;2.10;;
67997;SDS011;54773;53.388;-1.504;2023-06-14T14:40:18;5.93;;;2.33;;
67997;SDS011;54773;53.388;-1.504;2023-06-14T14:43:02;7.60;;;2.08;;
67997;SDS011;54773;53.388;-1.504;2023-06-14T14:45:46;7.80;;;2.22;;
67997;SDS011;54773;53.388;-1.504;2023-06-14T14:48:30;4.07;;;1.95;;
67997;SDS011;54773;53.388;-1.504;2023-06-14T14:51:14;5.68;;;1.90;;
67997;SDS011;54773;53.388;-1.504;2023-06-14T14:53:59;6.00;;;2.00;;
67997;SDS011;54773;53.388;-1.504;2023-06-14T14:56:42;6.28;;;2.25;;
67997;SDS011;54773;53.388;-1.504;2023-06-14T14:59:26;6.45;;;2.00;;
67997;SDS011;54773;53.388;-1.504;2023-06-14T15:02:11;7.55;;;2.33;;
67997;SDS011;54773;53.388;-1.504;2023-06-14T15:04:55;9.10;;;2.20;;
67997;SDS011;54773;53.388;-1.504;2023-06-14T15:07:44;8.57;;;2.10;;
67997;SDS011;54773;53.388;-1.504;2023-06-14T15:10:29;5.30;;;1.75;;
67997;SDS011;54773;53.388;-1.504;2023-06-14T15:13:13;5.95;;;1.98;;
67997;SDS011;54773;53.388;-1.504;2023-06-14T15:15:57;4.78;;;1.52;;
67997;SDS011;54773;53.388;-1.504;2023-06-14T15:18:41;6.28;;;2.00;;
67997;SDS011;54773;53.388;-1.504;2023-06-14T15:21:25;7.72;;;1.70;;
67997;SDS011;54773;53.388;-1.504;2023-06-14T15:24:10;6.05;;;1.83;;
67997;SDS011;54773;53.388;-1.504;2023-06-14T15:26:53;6.47;;;1.83;;
67997;SDS011;54773;53.388;-1.504;2023-06-14T15:29:38;6.43;;;1.92;;
67997;SDS011;54773;53.388;-1.504;2023-06-14T15:32:22;4.25;;;1.65;;
67997;SDS011;54773;53.388;-1.504;2023-06-14T15:35:06;6.07;;;1.88;;
67997;SDS011;54773;53.388;-1.504;2023-06-14T15:37:51;6.30;;;1.70;;
67997;SDS011;54773;53.388;-1.504;2023-06-14T15:40:35;7.05;;;2.20;;
67997;SDS011;54773;53.388;-1.504;2023-06-14T15:43:18;5.63;;;2.00;;
67997;SDS011;54773;53.388;-1.504;2023-06-14T15:46:06;5.90;;;1.90;;
67997;SDS011;54773;53.388;-1.504;2023-06-14T15:48:50;5.20;;;1.60;;
67997;SDS011;54773;53.388;-1.504;2023-06-14T15:51:34;6.05;;;1.90;;
67997;SDS011;54773;53.388;-1.504;2023-06-14T15:54:18;5.80;;;1.60;;
67997;SDS011;54773;53.388;-1.504;2023-06-14T15:57:07;4.93;;;1.80;;
67997;SDS011;54773;53.388;-1.504;2023-06-14T15:59:51;9.45;;;2.35;;
67997;SDS011;54773;53.388;-1.504;2023-06-14T16:02:36;5.38;;;1.67;;
67997;SDS011;54773;53.388;-1.504;2023-06-14T16:05:20;6.15;;;2.08;;
67997;SDS011;54773;53.388;-1.504;2023-06-14T16:08:04;6.93;;;1.85;;
67997;SDS011;54773;53.388;-1.504;2023-06-14T16:10:48;5.55;;;2.00;;
67997;SDS011;54773;53.388;-1.504;2023-06-14T16:13:32;6.65;;;1.90;;
67997;SDS011;54773;53.388;-1.504;2023-06-14T16:16:16;5.47;;;1.80;;
67997;SDS011;54773;53.388;-1.504;2023-06-14T16:19:01;4.88;;;1.50;;
67997;SDS011;54773;53.388;-1.504;2023-06-14T16:21:45;5.80;;;1.95;;
67997;SDS011;54773;53.388;-1.504;2023-06-14T16:27:13;6.18;;;1.80;;
67997;SDS011;54773;53.388;-1.504;2023-06-14T16:29:58;3.83;;;1.50;;
67997;SDS011;54773;53.388;-1.504;2023-06-14T16:35:26;4.53;;;1.83;;
67997;SDS011;54773;53.388;-1.504;2023-06-14T16:38:10;4.85;;;1.70;;
67997;SDS011;54773;53.388;-1.504;2023-06-14T16:43:38;4.33;;;1.57;;
67997;SDS011;54773;53.388;-1.504;2023-06-14T16:46:28;5.43;;;1.70;;
67997;SDS011;54773;53.388;-1.504;2023-06-14T16:49:16;5.30;;;1.80;;
67997;SDS011;54773;53.388;-1.504;2023-06-14T16:54:44;6.43;;;2.63;;
67997;SDS011;54773;53.388;-1.504;2023-06-14T16:57:28;7.88;;;2.63;;
67997;SDS011;54773;53.388;-1.504;2023-06-14T17:00:12;5.88;;;2.10;;
67997;SDS011;54773;53.388;-1.504;2023-06-14T17:02:57;6.03;;;1.88;;
67997;SDS011;54773;53.388;-1.504;2023-06-14T17:05:54;6.18;;;1.83;;
67997;SDS011;54773;53.388;-1.504;2023-06-14T17:08:40;8.75;;;2.00;;
67997;SDS011;54773;53.388;-1.504;2023-06-14T17:11:25;5.43;;;1.90;;